sensor_id;sensor_type;location;lat;lon;timestamp;temperature;humidity
69895;DHT22;57172;52.034;5.090;2023-03-01T00:03:29;1.90;58.60
69895;DHT22;57172;52.034;5.090;2023-03-01T00:05:56;1.80;58.60
69895;DHT22;57172;52.034;5.090;2023-03-01T00:08:25;1.80;58.70
69895;DHT22;57172;52.034;5.090;2023-03-01T00:11:24;1.80;58.70
69895;DHT22;57172;52.034;5.090;2023-03-01T00:13:54;1.80;58.80
69895;DHT22;57172;52.034;5.090;2023-03-01T00:16:30;1.80;58.70
69895;DHT22;57172;52.034;5.090;2023-03-01T00:18:58;1.70;58.80
69895;DHT22;57172;52.034;5.090;2023-03-01T00:21:25;1.70;58.90
69895;DHT22;57172;52.034;5.090;2023-03-01T00:23:53;1.60;58.90
69895;DHT22;57172;52.034;5.090;2023-03-01T00:26:22;1.60;59.10
69895;DHT22;57172;52.034;5.090;2023-03-01T00:28:49;1.60;59.20
69895;DHT22;57172;52.034;5.090;2023-03-01T00:31:20;1.60;59.20
69895;DHT22;57172;52.034;5.090;2023-03-01T00:33:47;1.50;59.30
69895;DHT22;57172;52.034;5.090;2023-03-01T00:36:15;1.50;59.30
69895;DHT22;57172;52.034;5.090;2023-03-01T00:38:44;1.50;59.30
69895;DHT22;57172;52.034;5.090;2023-03-01T00:41:13;1.50;59.40
69895;DHT22;57172;52.034;5.090;2023-03-01T00:43:41;1.50;59.40
69895;DHT22;57172;52.034;5.090;2023-03-01T00:46:14;1.50;59.40
69895;DHT22;57172;52.034;5.090;2023-03-01T00:48:41;1.40;59.50
69895;DHT22;57172;52.034;5.090;2023-03-01T00:51:15;1.40;59.50
69895;DHT22;57172;52.034;5.090;2023-03-01T00:53:43;1.40;59.60
69895;DHT22;57172;52.034;5.090;2023-03-01T00:56:11;1.30;59.60
69895;DHT22;57172;52.034;5.090;2023-03-01T00:58:39;1.30;59.60
69895;DHT22;57172;52.034;5.090;2023-03-01T01:01:10;1.30;59.60
69895;DHT22;57172;52.034;5.090;2023-03-01T01:03:55;1.30;59.70
69895;DHT22;57172;52.034;5.090;2023-03-01T01:06:31;1.20;59.70
69895;DHT22;57172;52.034;5.090;2023-03-01T01:09:01;1.20;59.80
69895;DHT22;57172;52.034;5.090;2023-03-01T01:11:29;1.20;59.80
69895;DHT22;57172;52.034;5.090;2023-03-01T01:13:57;1.20;59.80
69895;DHT22;57172;52.034;5.090;2023-03-01T01:16:26;1.10;59.90
69895;DHT22;57172;52.034;5.090;2023-03-01T01:18:53;1.10;59.90
69895;DHT22;57172;52.034;5.090;2023-03-01T01:21:22;1.10;60.00
69895;DHT22;57172;52.034;5.090;2023-03-01T01:23:50;1.00;60.10
69895;DHT22;57172;52.034;5.090;2023-03-01T01:26:23;1.00;60.10
69895;DHT22;57172;52.034;5.090;2023-03-01T01:28:50;1.00;60.20
69895;DHT22;57172;52.034;5.090;2023-03-01T01:31:19;1.00;60.30
69895;DHT22;57172;52.034;5.090;2023-03-01T01:33:46;0.90;60.30
69895;DHT22;57172;52.034;5.090;2023-03-01T01:36:13;0.90;60.30
69895;DHT22;57172;52.034;5.090;2023-03-01T01:38:40;0.90;60.40
69895;DHT22;57172;52.034;5.090;2023-03-01T01:41:09;0.90;60.50
69895;DHT22;57172;52.034;5.090;2023-03-01T01:43:42;0.90;60.50
69895;DHT22;57172;52.034;5.090;2023-03-01T01:46:24;0.90;60.50
69895;DHT22;57172;52.034;5.090;2023-03-01T01:51:47;0.80;60.70
69895;DHT22;57172;52.034;5.090;2023-03-01T01:54:23;0.70;60.70
69895;DHT22;57172;52.034;5.090;2023-03-01T01:56:55;0.70;60.70
69895;DHT22;57172;52.034;5.090;2023-03-01T01:59:24;0.70;60.80
69895;DHT22;57172;52.034;5.090;2023-03-01T02:01:52;0.70;60.80
69895;DHT22;57172;52.034;5.090;2023-03-01T02:04:19;0.60;61.00
69895;DHT22;57172;52.034;5.090;2023-03-01T02:06:56;0.60;61.10
69895;DHT22;57172;52.034;5.090;2023-03-01T02:09:25;0.60;61.20
69895;DHT22;57172;52.034;5.090;2023-03-01T02:11:53;0.60;61.20
69895;DHT22;57172;52.034;5.090;2023-03-01T02:14:20;0.50;61.20
69895;DHT22;57172;52.034;5.090;2023-03-01T02:16:47;0.50;61.20
69895;DHT22;57172;52.034;5.090;2023-03-01T02:22:22;0.50;61.30
69895;DHT22;57172;52.034;5.090;2023-03-01T02:25:03;0.50;61.30
69895;DHT22;57172;52.034;5.090;2023-03-01T02:27:42;0.50;61.30
69895;DHT22;57172;52.034;5.090;2023-03-01T02:30:15;0.40;61.30
69895;DHT22;57172;52.034;5.090;2023-03-01T02:32:43;0.40;61.30
69895;DHT22;57172;52.034;5.090;2023-03-01T02:35:12;0.40;61.30
69895;DHT22;57172;52.034;5.090;2023-03-01T02:37:42;0.40;61.40
69895;DHT22;57172;52.034;5.090;2023-03-01T02:40:12;0.30;61.50
69895;DHT22;57172;52.034;5.090;2023-03-01T02:42:51;0.30;61.60
69895;DHT22;57172;52.034;5.090;2023-03-01T02:45:18;0.30;61.70
69895;DHT22;57172;52.034;5.090;2023-03-01T02:47:45;0.30;61.80
69895;DHT22;57172;52.034;5.090;2023-03-01T02:55:51;0.20;61.80
69895;DHT22;57172;52.034;5.090;2023-03-01T02:58:18;0.20;61.90
69895;DHT22;57172;52.034;5.090;2023-03-01T03:00:45;0.20;62.10
69895;DHT22;57172;52.034;5.090;2023-03-01T03:03:20;0.20;62.10
69895;DHT22;57172;52.034;5.090;2023-03-01T03:05:47;0.10;62.20
69895;DHT22;57172;52.034;5.090;2023-03-01T03:08:15;0.20;62.20
69895;DHT22;57172;52.034;5.090;2023-03-01T03:10:51;0.10;62.10
69895;DHT22;57172;52.034;5.090;2023-03-01T03:13:18;0.10;62.30
69895;DHT22;57172;52.034;5.090;2023-03-01T03:15:45;0.10;62.30
69895;DHT22;57172;52.034;5.090;2023-03-01T03:18:15;0.10;62.20
69895;DHT22;57172;52.034;5.090;2023-03-01T03:20:43;0.10;62.20
69895;DHT22;57172;52.034;5.090;2023-03-01T03:23:10;0.10;62.30
69895;DHT22;57172;52.034;5.090;2023-03-01T03:25:37;0.00;62.40
69895;DHT22;57172;52.034;5.090;2023-03-01T03:28:06;0.00;62.40
69895;DHT22;57172;52.034;5.090;2023-03-01T03:30:40;0.00;62.50
69895;DHT22;57172;52.034;5.090;2023-03-01T03:33:08;0.00;62.40
69895;DHT22;57172;52.034;5.090;2023-03-01T03:35:44;0.00;62.50
69895;DHT22;57172;52.034;5.090;2023-03-01T03:38:13;0.00;62.50
69895;DHT22;57172;52.034;5.090;2023-03-01T03:40:46;-0.10;62.50
69895;DHT22;57172;52.034;5.090;2023-03-01T03:43:17;-0.10;62.60
69895;DHT22;57172;52.034;5.090;2023-03-01T03:45:45;-0.10;62.60
69895;DHT22;57172;52.034;5.090;2023-03-01T03:48:13;-0.10;62.60
69895;DHT22;57172;52.034;5.090;2023-03-01T03:50:41;-0.10;62.60
69895;DHT22;57172;52.034;5.090;2023-03-01T03:53:10;-0.10;62.60
69895;DHT22;57172;52.034;5.090;2023-03-01T03:55:38;-0.20;62.60
69895;DHT22;57172;52.034;5.090;2023-03-01T03:58:08;-0.20;62.60
69895;DHT22;57172;52.034;5.090;2023-03-01T04:00:44;-0.20;62.60
69895;DHT22;57172;52.034;5.090;2023-03-01T04:03:13;-0.20;62.60
69895;DHT22;57172;52.034;5.090;2023-03-01T04:05:41;-0.20;62.60
69895;DHT22;57172;52.034;5.090;2023-03-01T04:08:08;-0.20;62.70
69895;DHT22;57172;52.034;5.090;2023-03-01T04:10:44;-0.30;62.70
69895;DHT22;57172;52.034;5.090;2023-03-01T04:13:14;-0.30;62.80
69895;DHT22;57172;52.034;5.090;2023-03-01T04:15:42;-0.30;62.80
69895;DHT22;57172;52.034;5.090;2023-03-01T04:18:13;-0.40;62.90
69895;DHT22;57172;52.034;5.090;2023-03-01T04:20:41;-0.40;63.30
69895;DHT22;57172;52.034;5.090;2023-03-01T04:23:10;-0.40;63.50
69895;DHT22;57172;52.034;5.090;2023-03-01T04:28:15;-0.40;63.70
69895;DHT22;57172;52.034;5.090;2023-03-01T04:30:43;-0.40;63.90
69895;DHT22;57172;52.034;5.090;2023-03-01T04:33:10;-0.50;64.00
69895;DHT22;57172;52.034;5.090;2023-03-01T04:35:38;-0.50;63.90
69895;DHT22;57172;52.034;5.090;2023-03-01T04:38:06;-0.40;64.00
69895;DHT22;57172;52.034;5.090;2023-03-01T04:40:33;-0.50;64.00
69895;DHT22;57172;52.034;5.090;2023-03-01T04:43:01;-0.50;63.90
69895;DHT22;57172;52.034;5.090;2023-03-01T04:45:28;-0.50;64.00
69895;DHT22;57172;52.034;5.090;2023-03-01T04:47:55;-0.50;64.00
69895;DHT22;57172;52.034;5.090;2023-03-01T04:50:24;-0.50;64.00
69895;DHT22;57172;52.034;5.090;2023-03-01T04:52:52;-0.50;64.20
69895;DHT22;57172;52.034;5.090;2023-03-01T04:55:19;-0.60;64.30
69895;DHT22;57172;52.034;5.090;2023-03-01T04:57:46;-0.60;64.30
69895;DHT22;57172;52.034;5.090;2023-03-01T05:00:14;-0.60;64.30
69895;DHT22;57172;52.034;5.090;2023-03-01T05:02:58;-0.60;64.30
69895;DHT22;57172;52.034;5.090;2023-03-01T05:05:37;-0.70;64.30
69895;DHT22;57172;52.034;5.090;2023-03-01T05:08:06;-0.70;64.20
69895;DHT22;57172;52.034;5.090;2023-03-01T05:10:35;-0.70;64.20
69895;DHT22;57172;52.034;5.090;2023-03-01T05:13:03;-0.70;64.20
69895;DHT22;57172;52.034;5.090;2023-03-01T05:15:31;-0.70;64.20
69895;DHT22;57172;52.034;5.090;2023-03-01T05:17:59;-0.80;64.20
69895;DHT22;57172;52.034;5.090;2023-03-01T05:20:27;-0.80;64.20
69895;DHT22;57172;52.034;5.090;2023-03-01T05:22:57;-0.80;64.40
69895;DHT22;57172;52.034;5.090;2023-03-01T05:25:25;-0.80;64.40
69895;DHT22;57172;52.034;5.090;2023-03-01T05:27:52;-0.80;64.50
69895;DHT22;57172;52.034;5.090;2023-03-01T05:30:19;-0.80;64.60
69895;DHT22;57172;52.034;5.090;2023-03-01T05:32:48;-0.80;64.70
69895;DHT22;57172;52.034;5.090;2023-03-01T05:35:17;-0.80;64.70
69895;DHT22;57172;52.034;5.090;2023-03-01T05:37:46;-0.90;64.60
69895;DHT22;57172;52.034;5.090;2023-03-01T05:40:17;-0.90;64.60
69895;DHT22;57172;52.034;5.090;2023-03-01T05:42:53;-0.90;64.60
69895;DHT22;57172;52.034;5.090;2023-03-01T05:45:23;-0.90;64.70
69895;DHT22;57172;52.034;5.090;2023-03-01T05:47:51;-0.90;64.70
69895;DHT22;57172;52.034;5.090;2023-03-01T05:50:20;-0.90;64.70
69895;DHT22;57172;52.034;5.090;2023-03-01T05:52:49;-1.00;64.80
69895;DHT22;57172;52.034;5.090;2023-03-01T05:55:18;-1.00;64.80
69895;DHT22;57172;52.034;5.090;2023-03-01T05:57:45;-1.00;64.90
69895;DHT22;57172;52.034;5.090;2023-03-01T06:00:13;-1.00;64.90
69895;DHT22;57172;52.034;5.090;2023-03-01T06:02:41;-1.00;64.80
69895;DHT22;57172;52.034;5.090;2023-03-01T06:05:09;-1.00;64.70
69895;DHT22;57172;52.034;5.090;2023-03-01T06:07:36;-1.00;64.80
69895;DHT22;57172;52.034;5.090;2023-03-01T06:10:04;-1.10;64.80
69895;DHT22;57172;52.034;5.090;2023-03-01T06:12:32;-1.10;64.80
69895;DHT22;57172;52.034;5.090;2023-03-01T06:15:00;-1.10;64.80
69895;DHT22;57172;52.034;5.090;2023-03-01T06:17:29;-1.10;64.80
69895;DHT22;57172;52.034;5.090;2023-03-01T06:19:56;-1.10;64.90
69895;DHT22;57172;52.034;5.090;2023-03-01T06:22:23;-1.10;64.90
69895;DHT22;57172;52.034;5.090;2023-03-01T06:24:50;-1.10;64.90
69895;DHT22;57172;52.034;5.090;2023-03-01T06:27:17;-1.10;64.90
69895;DHT22;57172;52.034;5.090;2023-03-01T06:29:44;-1.20;64.90
69895;DHT22;57172;52.034;5.090;2023-03-01T06:32:11;-1.10;65.00
69895;DHT22;57172;52.034;5.090;2023-03-01T06:34:38;-1.10;65.10
69895;DHT22;57172;52.034;5.090;2023-03-01T06:37:05;-1.10;65.10
69895;DHT22;57172;52.034;5.090;2023-03-01T06:39:32;-1.10;65.20
69895;DHT22;57172;52.034;5.090;2023-03-01T06:42:00;-1.10;65.10
69895;DHT22;57172;52.034;5.090;2023-03-01T06:44:27;-1.10;65.20
69895;DHT22;57172;52.034;5.090;2023-03-01T06:46:54;-1.10;65.20
69895;DHT22;57172;52.034;5.090;2023-03-01T06:49:21;-1.10;65.30
69895;DHT22;57172;52.034;5.090;2023-03-01T06:51:48;-1.10;65.30
69895;DHT22;57172;52.034;5.090;2023-03-01T06:54:14;-1.00;65.40
69895;DHT22;57172;52.034;5.090;2023-03-01T06:56:41;-1.00;65.60
69895;DHT22;57172;52.034;5.090;2023-03-01T06:59:08;-1.00;65.70
69895;DHT22;57172;52.034;5.090;2023-03-01T07:01:35;-0.90;65.80
69895;DHT22;57172;52.034;5.090;2023-03-01T07:04:02;-0.90;65.80
69895;DHT22;57172;52.034;5.090;2023-03-01T07:06:29;-0.90;65.90
69895;DHT22;57172;52.034;5.090;2023-03-01T07:08:56;-0.80;65.90
69895;DHT22;57172;52.034;5.090;2023-03-01T07:11:23;-0.80;66.00
69895;DHT22;57172;52.034;5.090;2023-03-01T07:13:50;-0.70;66.30
69895;DHT22;57172;52.034;5.090;2023-03-01T07:16:17;-0.50;66.90
69895;DHT22;57172;52.034;5.090;2023-03-01T07:18:44;-0.40;67.50
69895;DHT22;57172;52.034;5.090;2023-03-01T07:21:13;-0.10;68.10
69895;DHT22;57172;52.034;5.090;2023-03-01T07:23:40;0.20;68.90
69895;DHT22;57172;52.034;5.090;2023-03-01T07:26:07;0.60;69.50
69895;DHT22;57172;52.034;5.090;2023-03-01T07:28:34;1.00;70.30
69895;DHT22;57172;52.034;5.090;2023-03-01T07:31:03;1.40;71.00
69895;DHT22;57172;52.034;5.090;2023-03-01T07:33:30;2.00;71.80
69895;DHT22;57172;52.034;5.090;2023-03-01T07:35:58;2.60;71.60
69895;DHT22;57172;52.034;5.090;2023-03-01T07:38:26;3.10;70.70
69895;DHT22;57172;52.034;5.090;2023-03-01T07:40:53;3.60;68.90
69895;DHT22;57172;52.034;5.090;2023-03-01T07:43:20;3.70;67.00
69895;DHT22;57172;52.034;5.090;2023-03-01T07:45:47;3.90;65.60
69895;DHT22;57172;52.034;5.090;2023-03-01T07:48:14;3.90;64.00
69895;DHT22;57172;52.034;5.090;2023-03-01T07:50:41;3.90;63.40
69895;DHT22;57172;52.034;5.090;2023-03-01T07:53:09;3.90;62.90
69895;DHT22;57172;52.034;5.090;2023-03-01T07:55:36;3.90;62.30
69895;DHT22;57172;52.034;5.090;2023-03-01T07:58:03;4.00;61.90
69895;DHT22;57172;52.034;5.090;2023-03-01T08:00:31;4.00;61.60
69895;DHT22;57172;52.034;5.090;2023-03-01T08:03:01;4.00;61.10
69895;DHT22;57172;52.034;5.090;2023-03-01T08:05:29;4.00;60.90
69895;DHT22;57172;52.034;5.090;2023-03-01T08:07:56;4.10;60.70
69895;DHT22;57172;52.034;5.090;2023-03-01T08:10:23;4.10;60.70
69895;DHT22;57172;52.034;5.090;2023-03-01T08:12:51;4.20;60.30
69895;DHT22;57172;52.034;5.090;2023-03-01T08:15:19;4.20;59.70
69895;DHT22;57172;52.034;5.090;2023-03-01T08:17:49;4.20;59.10
69895;DHT22;57172;52.034;5.090;2023-03-01T08:20:16;4.20;59.00
69895;DHT22;57172;52.034;5.090;2023-03-01T08:22:45;4.20;58.90
69895;DHT22;57172;52.034;5.090;2023-03-01T08:25:12;4.30;59.10
69895;DHT22;57172;52.034;5.090;2023-03-01T08:27:39;4.40;59.30
69895;DHT22;57172;52.034;5.090;2023-03-01T08:30:06;4.70;60.80
69895;DHT22;57172;52.034;5.090;2023-03-01T08:32:38;5.20;62.00
69895;DHT22;57172;52.034;5.090;2023-03-01T08:35:05;5.80;63.40
69895;DHT22;57172;52.034;5.090;2023-03-01T08:37:32;6.60;64.00
69895;DHT22;57172;52.034;5.090;2023-03-01T08:40:00;7.50;61.90
69895;DHT22;57172;52.034;5.090;2023-03-01T08:42:27;8.20;60.60
69895;DHT22;57172;52.034;5.090;2023-03-01T08:44:54;8.90;59.40
69895;DHT22;57172;52.034;5.090;2023-03-01T08:47:20;9.70;57.20
69895;DHT22;57172;52.034;5.090;2023-03-01T08:49:49;10.40;54.10
69895;DHT22;57172;52.034;5.090;2023-03-01T08:52:16;10.60;50.90
69895;DHT22;57172;52.034;5.090;2023-03-01T08:54:43;10.90;50.70
69895;DHT22;57172;52.034;5.090;2023-03-01T08:57:10;11.30;49.90
69895;DHT22;57172;52.034;5.090;2023-03-01T08:59:37;11.90;49.10
69895;DHT22;57172;52.034;5.090;2023-03-01T09:02:05;12.30;47.90
69895;DHT22;57172;52.034;5.090;2023-03-01T09:04:32;12.70;46.80
69895;DHT22;57172;52.034;5.090;2023-03-01T09:07:00;13.10;45.70
69895;DHT22;57172;52.034;5.090;2023-03-01T09:09:26;13.60;45.20
69895;DHT22;57172;52.034;5.090;2023-03-01T09:11:53;14.10;43.90
69895;DHT22;57172;52.034;5.090;2023-03-01T09:14:20;14.80;43.10
69895;DHT22;57172;52.034;5.090;2023-03-01T09:16:47;15.40;41.80
69895;DHT22;57172;52.034;5.090;2023-03-01T09:19:14;15.90;40.30
69895;DHT22;57172;52.034;5.090;2023-03-01T09:21:41;16.20;38.00
69895;DHT22;57172;52.034;5.090;2023-03-01T09:24:14;15.90;36.50
69895;DHT22;57172;52.034;5.090;2023-03-01T09:26:42;15.60;37.20
69895;DHT22;57172;52.034;5.090;2023-03-01T09:29:09;15.60;37.10
69895;DHT22;57172;52.034;5.090;2023-03-01T09:31:37;15.60;37.00
69895;DHT22;57172;52.034;5.090;2023-03-01T09:34:04;15.60;37.00
69895;DHT22;57172;52.034;5.090;2023-03-01T09:36:32;16.00;35.80
69895;DHT22;57172;52.034;5.090;2023-03-01T09:39:00;16.20;36.00
69895;DHT22;57172;52.034;5.090;2023-03-01T09:41:47;16.70;35.80
69895;DHT22;57172;52.034;5.090;2023-03-01T09:47:00;17.70;34.80
69895;DHT22;57172;52.034;5.090;2023-03-01T09:49:39;18.10;34.80
69895;DHT22;57172;52.034;5.090;2023-03-01T10:00:47;19.50;32.50
69895;DHT22;57172;52.034;5.090;2023-03-01T10:03:16;20.00;31.90
69895;DHT22;57172;52.034;5.090;2023-03-01T10:08:32;20.30;30.20
69895;DHT22;57172;52.034;5.090;2023-03-01T10:11:05;19.80;29.20
69895;DHT22;57172;52.034;5.090;2023-03-01T10:13:51;19.60;30.50
69895;DHT22;57172;52.034;5.090;2023-03-01T10:19:12;20.70;29.40
69895;DHT22;57172;52.034;5.090;2023-03-01T10:21:44;21.20;29.10
69895;DHT22;57172;52.034;5.090;2023-03-01T10:24:15;21.40;28.80
69895;DHT22;57172;52.034;5.090;2023-03-01T10:26:44;21.30;28.40
69895;DHT22;57172;52.034;5.090;2023-03-01T10:29:14;21.20;28.10
69895;DHT22;57172;52.034;5.090;2023-03-01T10:31:42;21.40;28.50
69895;DHT22;57172;52.034;5.090;2023-03-01T10:34:16;21.50;28.00
69895;DHT22;57172;52.034;5.090;2023-03-01T10:36:47;21.50;27.90
69895;DHT22;57172;52.034;5.090;2023-03-01T10:39:23;21.70;27.70
69895;DHT22;57172;52.034;5.090;2023-03-01T10:41:55;21.80;27.20
69895;DHT22;57172;52.034;5.090;2023-03-01T10:44:47;21.70;27.30
69895;DHT22;57172;52.034;5.090;2023-03-01T10:47:20;21.70;27.30
69895;DHT22;57172;52.034;5.090;2023-03-01T10:50:02;21.50;26.90
69895;DHT22;57172;52.034;5.090;2023-03-01T10:52:37;21.40;26.90
69895;DHT22;57172;52.034;5.090;2023-03-01T10:55:45;21.40;27.00
69895;DHT22;57172;52.034;5.090;2023-03-01T11:03:24;22.10;25.80
69895;DHT22;57172;52.034;5.090;2023-03-01T11:05:56;22.10;25.90
69895;DHT22;57172;52.034;5.090;2023-03-01T11:08:44;22.30;26.50
69895;DHT22;57172;52.034;5.090;2023-03-01T11:11:30;22.40;25.40
69895;DHT22;57172;52.034;5.090;2023-03-01T11:14:07;22.20;26.80
69895;DHT22;57172;52.034;5.090;2023-03-01T11:17:03;22.30;25.90
69895;DHT22;57172;52.034;5.090;2023-03-01T11:19:31;22.50;25.80
69895;DHT22;57172;52.034;5.090;2023-03-01T11:22:19;22.80;25.90
69895;DHT22;57172;52.034;5.090;2023-03-01T11:24:50;22.90;24.90
69895;DHT22;57172;52.034;5.090;2023-03-01T11:27:39;22.90;24.80
69895;DHT22;57172;52.034;5.090;2023-03-01T11:32:43;23.40;24.90
69895;DHT22;57172;52.034;5.090;2023-03-01T11:35:18;23.70;24.70
69895;DHT22;57172;52.034;5.090;2023-03-01T11:38:09;24.00;24.90
69895;DHT22;57172;52.034;5.090;2023-03-01T11:40:48;24.30;24.50
69895;DHT22;57172;52.034;5.090;2023-03-01T11:49:27;24.00;24.10
69895;DHT22;57172;52.034;5.090;2023-03-01T11:58:04;23.40;23.80
69895;DHT22;57172;52.034;5.090;2023-03-01T12:01:02;23.40;24.20
69895;DHT22;57172;52.034;5.090;2023-03-01T12:04:01;23.80;23.90
69895;DHT22;57172;52.034;5.090;2023-03-01T12:12:32;24.50;24.20
69895;DHT22;57172;52.034;5.090;2023-03-01T12:15:37;25.10;23.60
69895;DHT22;57172;52.034;5.090;2023-03-01T12:24:20;25.20;22.80
69895;DHT22;57172;52.034;5.090;2023-03-01T12:32:54;24.30;22.40
69895;DHT22;57172;52.034;5.090;2023-03-01T12:35:32;24.20;23.40
69895;DHT22;57172;52.034;5.090;2023-03-01T12:41:26;25.00;21.50
69895;DHT22;57172;52.034;5.090;2023-03-01T12:49:20;24.20;22.60
69895;DHT22;57172;52.034;5.090;2023-03-01T12:52:16;24.00;22.70
69895;DHT22;57172;52.034;5.090;2023-03-01T12:54:46;24.10;22.70
69895;DHT22;57172;52.034;5.090;2023-03-01T12:57:41;24.40;22.40
69895;DHT22;57172;52.034;5.090;2023-03-01T13:00:26;24.50;21.90
69895;DHT22;57172;52.034;5.090;2023-03-01T13:06:11;24.50;21.70
69895;DHT22;57172;52.034;5.090;2023-03-01T13:08:54;24.50;21.60
69895;DHT22;57172;52.034;5.090;2023-03-01T13:11:24;24.40;21.70
69895;DHT22;57172;52.034;5.090;2023-03-01T13:13:51;24.40;22.00
69895;DHT22;57172;52.034;5.090;2023-03-01T13:16:22;24.80;22.10
69895;DHT22;57172;52.034;5.090;2023-03-01T13:19:22;25.10;21.90
69895;DHT22;57172;52.034;5.090;2023-03-01T13:21:52;25.10;21.90
69895;DHT22;57172;52.034;5.090;2023-03-01T13:32:29;24.80;21.70
69895;DHT22;57172;52.034;5.090;2023-03-01T13:37:41;24.20;22.30
69895;DHT22;57172;52.034;5.090;2023-03-01T13:43:42;24.10;22.10
69895;DHT22;57172;52.034;5.090;2023-03-01T13:46:19;24.00;21.90
69895;DHT22;57172;52.034;5.090;2023-03-01T13:48:50;23.90;22.30
69895;DHT22;57172;52.034;5.090;2023-03-01T13:51:26;24.10;22.00
69895;DHT22;57172;52.034;5.090;2023-03-01T13:53:55;24.10;21.90
69895;DHT22;57172;52.034;5.090;2023-03-01T13:56:28;24.00;21.90
69895;DHT22;57172;52.034;5.090;2023-03-01T13:59:04;23.70;21.40
69895;DHT22;57172;52.034;5.090;2023-03-01T14:01:34;23.40;21.60
69895;DHT22;57172;52.034;5.090;2023-03-01T14:04:14;23.00;21.60
69895;DHT22;57172;52.034;5.090;2023-03-01T14:06:44;22.50;22.20
69895;DHT22;57172;52.034;5.090;2023-03-01T14:09:26;22.40;22.60
69895;DHT22;57172;52.034;5.090;2023-03-01T14:12:12;22.40;22.90
69895;DHT22;57172;52.034;5.090;2023-03-01T14:14:56;22.80;23.30
69895;DHT22;57172;52.034;5.090;2023-03-01T14:20:22;23.00;22.70
69895;DHT22;57172;52.034;5.090;2023-03-01T14:22:53;23.00;22.70
69895;DHT22;57172;52.034;5.090;2023-03-01T14:25:35;22.90;23.10
69895;DHT22;57172;52.034;5.090;2023-03-01T14:30:42;22.70;23.50
69895;DHT22;57172;52.034;5.090;2023-03-01T14:38:42;23.00;23.00
69895;DHT22;57172;52.034;5.090;2023-03-01T14:41:21;22.90;23.00
69895;DHT22;57172;52.034;5.090;2023-03-01T14:43:57;22.90;23.40
69895;DHT22;57172;52.034;5.090;2023-03-01T14:46:38;22.80;22.60
69895;DHT22;57172;52.034;5.090;2023-03-01T14:49:25;22.30;22.50
69895;DHT22;57172;52.034;5.090;2023-03-01T14:51:58;21.70;22.90
69895;DHT22;57172;52.034;5.090;2023-03-01T14:54:35;21.60;23.30
69895;DHT22;57172;52.034;5.090;2023-03-01T14:57:04;21.40;23.30
69895;DHT22;57172;52.034;5.090;2023-03-01T14:59:33;21.20;23.40
69895;DHT22;57172;52.034;5.090;2023-03-01T15:02:01;21.00;23.50
69895;DHT22;57172;52.034;5.090;2023-03-01T15:04:28;20.90;23.80
69895;DHT22;57172;52.034;5.090;2023-03-01T15:06:57;20.90;24.20
69895;DHT22;57172;52.034;5.090;2023-03-01T15:09:34;21.10;24.20
69895;DHT22;57172;52.034;5.090;2023-03-01T15:14:55;20.90;23.90
69895;DHT22;57172;52.034;5.090;2023-03-01T15:17:37;20.90;24.30
69895;DHT22;57172;52.034;5.090;2023-03-01T15:20:14;20.70;24.10
69895;DHT22;57172;52.034;5.090;2023-03-01T15:22:46;20.70;24.20
69895;DHT22;57172;52.034;5.090;2023-03-01T15:25:18;20.60;24.30
69895;DHT22;57172;52.034;5.090;2023-03-01T15:27:46;20.40;24.20
69895;DHT22;57172;52.034;5.090;2023-03-01T15:30:25;20.40;24.30
69895;DHT22;57172;52.034;5.090;2023-03-01T15:33:16;20.20;24.30
69895;DHT22;57172;52.034;5.090;2023-03-01T15:35:48;20.10;24.50
69895;DHT22;57172;52.034;5.090;2023-03-01T15:41:45;19.60;24.20
69895;DHT22;57172;52.034;5.090;2023-03-01T15:44:41;19.30;24.60
69895;DHT22;57172;52.034;5.090;2023-03-01T15:47:30;19.00;24.70
69895;DHT22;57172;52.034;5.090;2023-03-01T15:49:59;18.70;25.10
69895;DHT22;57172;52.034;5.090;2023-03-01T15:52:40;18.40;25.40
69895;DHT22;57172;52.034;5.090;2023-03-01T15:55:35;18.10;25.60
69895;DHT22;57172;52.034;5.090;2023-03-01T15:58:27;18.00;25.90
69895;DHT22;57172;52.034;5.090;2023-03-01T16:00:54;17.90;25.50
69895;DHT22;57172;52.034;5.090;2023-03-01T16:03:28;17.60;25.70
69895;DHT22;57172;52.034;5.090;2023-03-01T16:05:55;17.40;26.20
69895;DHT22;57172;52.034;5.090;2023-03-01T16:08:22;17.20;26.30
69895;DHT22;57172;52.034;5.090;2023-03-01T16:10:49;17.10;26.50
69895;DHT22;57172;52.034;5.090;2023-03-01T16:13:17;17.00;26.70
69895;DHT22;57172;52.034;5.090;2023-03-01T16:15:44;16.90;26.70
69895;DHT22;57172;52.034;5.090;2023-03-01T16:18:11;16.80;27.00
69895;DHT22;57172;52.034;5.090;2023-03-01T16:20:39;16.80;27.00
69895;DHT22;57172;52.034;5.090;2023-03-01T16:23:09;16.60;26.80
69895;DHT22;57172;52.034;5.090;2023-03-01T16:25:36;16.20;27.10
69895;DHT22;57172;52.034;5.090;2023-03-01T16:28:04;15.90;27.60
69895;DHT22;57172;52.034;5.090;2023-03-01T16:30:37;15.80;27.80
69895;DHT22;57172;52.034;5.090;2023-03-01T16:33:04;15.70;28.00
69895;DHT22;57172;52.034;5.090;2023-03-01T16:35:52;15.70;28.10
69895;DHT22;57172;52.034;5.090;2023-03-01T16:38:19;15.50;28.20
69895;DHT22;57172;52.034;5.090;2023-03-01T16:40:50;15.30;28.50
69895;DHT22;57172;52.034;5.090;2023-03-01T16:43:17;15.10;28.80
69895;DHT22;57172;52.034;5.090;2023-03-01T16:45:44;14.90;29.00
69895;DHT22;57172;52.034;5.090;2023-03-01T16:48:13;14.60;29.10
69895;DHT22;57172;52.034;5.090;2023-03-01T16:50:40;14.30;29.50
69895;DHT22;57172;52.034;5.090;2023-03-01T16:53:07;14.00;29.90
69895;DHT22;57172;52.034;5.090;2023-03-01T16:55:34;13.50;30.20
69895;DHT22;57172;52.034;5.090;2023-03-01T16:58:01;13.10;30.70
69895;DHT22;57172;52.034;5.090;2023-03-01T17:00:28;12.70;31.00
69895;DHT22;57172;52.034;5.090;2023-03-01T17:02:55;12.30;31.50
69895;DHT22;57172;52.034;5.090;2023-03-01T17:05:22;12.00;32.00
69895;DHT22;57172;52.034;5.090;2023-03-01T17:07:51;11.70;32.60
69895;DHT22;57172;52.034;5.090;2023-03-01T17:10:18;11.40;32.80
69895;DHT22;57172;52.034;5.090;2023-03-01T17:12:48;11.00;33.20
69895;DHT22;57172;52.034;5.090;2023-03-01T17:15:16;10.80;33.40
69895;DHT22;57172;52.034;5.090;2023-03-01T17:17:42;10.60;33.80
69895;DHT22;57172;52.034;5.090;2023-03-01T17:20:10;10.40;34.40
69895;DHT22;57172;52.034;5.090;2023-03-01T17:22:37;10.20;34.60
69895;DHT22;57172;52.034;5.090;2023-03-01T17:25:07;10.10;34.80
69895;DHT22;57172;52.034;5.090;2023-03-01T17:27:36;9.90;35.20
69895;DHT22;57172;52.034;5.090;2023-03-01T17:30:04;9.70;35.30
69895;DHT22;57172;52.034;5.090;2023-03-01T17:32:31;9.60;35.70
69895;DHT22;57172;52.034;5.090;2023-03-01T17:34:58;9.50;35.80
69895;DHT22;57172;52.034;5.090;2023-03-01T17:37:25;9.40;36.20
69895;DHT22;57172;52.034;5.090;2023-03-01T17:39:52;9.30;36.30
69895;DHT22;57172;52.034;5.090;2023-03-01T17:42:19;9.20;36.60
69895;DHT22;57172;52.034;5.090;2023-03-01T17:44:46;9.10;36.80
69895;DHT22;57172;52.034;5.090;2023-03-01T17:47:13;9.00;37.10
69895;DHT22;57172;52.034;5.090;2023-03-01T17:49:40;8.80;37.10
69895;DHT22;57172;52.034;5.090;2023-03-01T17:52:06;8.80;37.70
69895;DHT22;57172;52.034;5.090;2023-03-01T17:54:33;8.60;37.70